createdAt,value
2023-04-24T00:01:40.441Z,11.73
2023-04-24T00:04:08.397Z,11.71
2023-04-24T00:06:35.208Z,11.75
2023-04-24T00:09:02.346Z,11.76
2023-04-24T00:11:29.329Z,11.72
2023-04-24T00:13:56.788Z,11.74
2023-04-24T00:16:24.286Z,11.77
2023-04-24T00:18:50.980Z,11.70
2023-04-24T00:21:18.784Z,11.59
2023-04-24T00:23:45.610Z,11.76
2023-04-24T00:26:12.327Z,11.73
2023-04-24T00:28:39.043Z,11.74
2023-04-24T00:31:05.783Z,11.81
2023-04-24T00:33:32.560Z,11.76
2023-04-24T00:35:59.421Z,11.68
2023-04-24T00:38:26.145Z,11.69
2023-04-24T00:40:52.901Z,11.57
2023-04-24T00:43:19.550Z,11.52
2023-04-24T00:45:47.316Z,11.39
2023-04-24T00:48:14.375Z,11.27
2023-04-24T00:50:41.664Z,11.21
2023-04-24T00:53:08.342Z,11.09
2023-04-24T00:55:34.992Z,11.05
2023-04-24T00:58:01.641Z,11.03
2023-04-24T01:00:28.374Z,11.12
2023-04-24T01:02:56.648Z,11.12
2023-04-24T01:05:23.610Z,11.12
2023-04-24T01:07:50.350Z,11.03
2023-04-24T01:10:18.886Z,10.93
2023-04-24T01:12:45.802Z,10.86
2023-04-24T01:15:12.516Z,10.87
2023-04-24T01:17:40.311Z,10.80
2023-04-24T01:20:07.473Z,10.77
2023-04-24T01:22:37.255Z,10.69
2023-04-24T01:25:04.593Z,10.62
2023-04-24T01:27:31.402Z,10.59
2023-04-24T01:29:58.358Z,10.46
2023-04-24T01:32:26.243Z,10.41
2023-04-24T01:34:53.061Z,10.43
2023-04-24T01:37:19.827Z,10.42
2023-04-24T01:39:46.514Z,10.40
2023-04-24T01:42:14.445Z,10.38
2023-04-24T01:44:42.842Z,10.26
2023-04-24T01:47:09.934Z,10.15
2023-04-24T01:49:37.367Z,10.16
2023-04-24T01:52:04.129Z,10.13
2023-04-24T01:54:31.012Z,10.31
2023-04-24T01:56:57.682Z,10.49
2023-04-24T01:59:28.354Z,10.54
2023-04-24T02:01:54.996Z,10.64
2023-04-24T02:04:21.673Z,10.61
2023-04-24T02:06:48.485Z,10.66
2023-04-24T02:09:15.163Z,10.63
2023-04-24T02:11:41.946Z,10.61
2023-04-24T02:14:08.588Z,10.64
2023-04-24T02:16:36.937Z,10.63
2023-04-24T02:19:04.338Z,10.58
2023-04-24T02:21:32.134Z,10.56
2023-04-24T02:23:58.953Z,10.40
2023-04-24T02:26:26.037Z,10.42
2023-04-24T02:28:52.696Z,10.48
2023-04-24T02:31:19.580Z,10.41
2023-04-24T02:33:46.304Z,10.26
2023-04-24T02:36:14.204Z,10.24
2023-04-24T02:38:41.193Z,10.15
2023-04-24T02:41:08.045Z,10.24
2023-04-24T02:43:34.772Z,10.33
2023-04-24T02:46:01.632Z,10.26
2023-04-24T02:48:28.804Z,10.37
2023-04-24T02:50:55.708Z,10.33
2023-04-24T02:53:22.612Z,10.36
2023-04-24T02:55:49.312Z,10.43
2023-04-24T02:58:16.900Z,10.38
2023-04-24T03:00:44.548Z,10.48
2023-04-24T03:03:11.373Z,10.50
2023-04-24T03:05:38.265Z,10.50
2023-04-24T03:08:04.965Z,10.42
2023-04-24T03:10:31.834Z,10.47
2023-04-24T03:12:58.641Z,10.51
2023-04-24T03:15:25.430Z,10.44
2023-04-24T03:17:52.980Z,10.36
2023-04-24T03:20:20.992Z,10.37
2023-04-24T03:22:47.683Z,10.29
2023-04-24T03:25:14.406Z,10.27
2023-04-24T03:27:41.128Z,10.15
2023-04-24T03:30:08.701Z,10.23
2023-04-24T03:32:35.401Z,10.21
2023-04-24T03:35:02.203Z,10.26
2023-04-24T03:37:28.950Z,10.17
2023-04-24T03:39:55.588Z,10.20
2023-04-24T03:42:22.186Z,10.24
2023-04-24T03:44:49.385Z,10.30
2023-04-24T03:47:16.207Z,10.25
2023-04-24T03:49:43.073Z,10.19
2023-04-24T03:52:10.138Z,10.17
2023-04-24T03:54:39.052Z,10.18
2023-04-24T03:57:05.998Z,10.27
2023-04-24T03:59:32.708Z,10.34
2023-04-24T04:01:59.459Z,10.43
2023-04-24T04:04:26.478Z,10.50
2023-04-24T04:06:54.300Z,10.61
2023-04-24T04:09:21.191Z,10.64
2023-04-24T04:11:47.868Z,10.68
2023-04-24T04:14:34.689Z,10.74
2023-04-24T04:17:10.289Z,10.75
2023-04-24T04:19:57.442Z,10.77
2023-04-24T04:22:44.743Z,10.83
2023-04-24T04:25:20.612Z,10.95
2023-04-24T04:28:07.360Z,10.94
2023-04-24T04:30:58.581Z,10.90
2023-04-24T04:33:45.332Z,10.83
2023-04-24T04:36:27.069Z,10.84
2023-04-24T04:39:16.067Z,10.76
2023-04-24T04:42:03.147Z,10.73
2023-04-24T04:44:49.789Z,10.59
2023-04-24T04:47:17.259Z,10.52
2023-04-24T04:49:44.731Z,10.38
2023-04-24T04:52:11.739Z,10.27
2023-04-24T04:54:38.464Z,10.23
2023-04-24T04:57:05.237Z,10.16
2023-04-24T04:59:31.955Z,10.10
2023-04-24T05:01:58.660Z,10.15
2023-04-24T05:04:25.883Z,10.23
2023-04-24T05:06:52.767Z,10.29
2023-04-24T05:09:19.834Z,10.37
2023-04-24T05:11:46.680Z,10.42
2023-04-24T05:14:13.935Z,10.61
2023-04-24T05:16:41.513Z,10.61
2023-04-24T05:19:08.532Z,10.61
2023-04-24T05:21:35.477Z,10.61
2023-04-24T05:24:02.264Z,10.60
2023-04-24T05:26:29.080Z,10.70
2023-04-24T05:28:55.864Z,10.83
2023-04-24T05:31:22.737Z,10.86
2023-04-24T05:33:49.534Z,10.87
2023-04-24T05:36:16.436Z,10.82
2023-04-24T05:38:43.211Z,10.79
2023-04-24T05:41:09.934Z,10.86
2023-04-24T05:43:36.589Z,10.86
2023-04-24T05:46:03.343Z,10.74
2023-04-24T05:48:30.201Z,10.83
2023-04-24T05:50:57.029Z,10.82
2023-04-24T05:53:23.780Z,10.81
2023-04-24T05:55:50.773Z,10.77
2023-04-24T05:58:17.650Z,10.69
2023-04-24T06:00:45.542Z,10.74
2023-04-24T06:03:12.643Z,10.76
2023-04-24T06:05:39.786Z,10.59
2023-04-24T06:08:07.407Z,10.71
2023-04-24T06:10:34.259Z,10.75
2023-04-24T06:13:01.657Z,10.90
2023-04-24T06:15:31.408Z,10.89
2023-04-24T06:17:58.720Z,10.97
2023-04-24T06:20:26.219Z,11.06
2023-04-24T06:22:53.249Z,11.13
2023-04-24T06:25:20.343Z,11.32
2023-04-24T06:27:47.620Z,11.25
2023-04-24T06:30:14.759Z,11.44
2023-04-24T06:32:41.617Z,11.44
2023-04-24T06:35:10.877Z,11.39
2023-04-24T06:37:37.819Z,11.33
2023-04-24T06:40:06.486Z,11.40
2023-04-24T06:42:34.707Z,11.26
2023-04-24T06:45:01.754Z,11.34
2023-04-24T06:47:28.435Z,11.14
2023-04-24T06:49:56.315Z,11.13
2023-04-24T06:52:23.156Z,11.05
2023-04-24T06:54:50.061Z,11.10
2023-04-24T06:57:19.575Z,11.02
2023-04-24T06:59:46.321Z,11.31
2023-04-24T07:02:13.162Z,11.34
2023-04-24T07:04:40.077Z,11.28
2023-04-24T07:07:08.011Z,11.41
2023-04-24T07:09:36.419Z,11.50
2023-04-24T07:12:03.901Z,11.59
2023-04-24T07:14:30.692Z,11.60
2023-04-24T07:16:58.185Z,11.73
2023-04-24T07:19:24.963Z,11.74
2023-04-24T07:21:51.759Z,11.55
2023-04-24T07:24:19.885Z,11.87
2023-04-24T07:26:47.688Z,11.74
2023-04-24T07:29:15.222Z,11.61
2023-04-24T07:31:42.494Z,11.51
2023-04-24T07:34:09.161Z,11.37
2023-04-24T07:36:36.069Z,11.61
2023-04-24T07:39:03.016Z,11.36
2023-04-24T07:41:29.769Z,11.45
2023-04-24T07:43:56.453Z,11.41
2023-04-24T07:46:24.453Z,11.32
2023-04-24T07:49:02.064Z,11.24
2023-04-24T07:51:39.495Z,11.20
2023-04-24T07:54:07.073Z,11.19
2023-04-24T07:56:34.623Z,11.17
2023-04-24T07:59:02.393Z,11.09
2023-04-24T08:01:29.249Z,11.14
2023-04-24T08:03:56.908Z,11.19
2023-04-24T08:06:24.098Z,11.17
2023-04-24T08:08:52.601Z,11.08
2023-04-24T08:11:19.367Z,11.10
2023-04-24T08:13:46.083Z,11.22
2023-04-24T08:16:12.986Z,11.08
2023-04-24T08:18:39.847Z,11.11
2023-04-24T08:21:06.560Z,11.27
2023-04-24T08:23:33.301Z,11.51
2023-04-24T08:26:00.112Z,11.70
2023-04-24T08:28:27.082Z,11.65
2023-04-24T08:30:55.988Z,12.03
2023-04-24T08:33:24.370Z,12.29
2023-04-24T08:35:51.728Z,12.33
2023-04-24T08:38:18.470Z,12.28
2023-04-24T08:40:47.158Z,11.97
2023-04-24T08:43:15.206Z,11.89
2023-04-24T08:45:42.035Z,11.76
2023-04-24T08:48:19.772Z,11.67
2023-04-24T08:50:55.219Z,11.80
2023-04-24T08:53:22.195Z,11.88
2023-04-24T08:55:49.580Z,11.82
2023-04-24T08:58:19.033Z,11.72
2023-04-24T09:00:48.133Z,11.57
2023-04-24T09:03:17.454Z,11.64
2023-04-24T09:05:47.216Z,11.70
2023-04-24T09:08:18.586Z,11.57
2023-04-24T09:10:45.782Z,11.64
2023-04-24T09:13:12.826Z,11.64
2023-04-24T09:15:39.954Z,11.77
2023-04-24T09:18:06.870Z,12.24
2023-04-24T09:20:36.341Z,12.36
2023-04-24T09:23:03.072Z,12.46
2023-04-24T09:25:34.898Z,12.56
2023-04-24T09:28:03.770Z,12.22
2023-04-24T09:30:31.495Z,12.21
2023-04-24T09:33:17.264Z,11.88
2023-04-24T09:35:51.030Z,11.92
2023-04-24T09:38:17.831Z,12.18
2023-04-24T09:40:44.628Z,12.48
2023-04-24T09:43:13.581Z,12.64
2023-04-24T09:45:41.272Z,12.71
2023-04-24T09:48:11.839Z,12.89
2023-04-24T09:50:38.754Z,12.63
2023-04-24T09:53:10.037Z,12.44
2023-04-24T09:55:42.114Z,12.23
2023-04-24T09:58:09.646Z,11.91
2023-04-24T10:00:36.539Z,12.00
2023-04-24T10:03:05.154Z,12.11
2023-04-24T10:05:33.829Z,11.96
2023-04-24T10:08:10.472Z,11.95
2023-04-24T10:10:42.248Z,11.89
2023-04-24T10:13:11.341Z,12.24
2023-04-24T10:15:39.434Z,12.27
2023-04-24T10:18:10.095Z,12.95
2023-04-24T10:20:38.785Z,13.68
2023-04-24T10:23:05.870Z,13.87
2023-04-24T10:25:35.534Z,13.93
2023-04-24T10:28:03.566Z,13.67
2023-04-24T10:30:38.789Z,13.36
2023-04-24T10:33:08.609Z,13.10
2023-04-24T10:35:39.395Z,13.24
2023-04-24T10:38:19.925Z,13.16
2023-04-24T10:40:46.768Z,12.97
2023-04-24T10:43:18.403Z,12.51
2023-04-24T10:46:05.045Z,12.48
2023-04-24T10:48:32.304Z,12.62
2023-04-24T10:50:59.531Z,13.28
2023-04-24T10:53:30.684Z,12.79
2023-04-24T10:56:05.222Z,13.05
2023-04-24T10:58:39.930Z,13.61
2023-04-24T11:01:07.437Z,14.11
2023-04-24T11:03:36.319Z,14.31
2023-04-24T11:06:07.207Z,14.49
2023-04-24T11:08:41.300Z,14.53
2023-04-24T11:11:13.948Z,13.99
2023-04-24T11:13:55.991Z,13.77
2023-04-24T11:16:36.049Z,14.44
2023-04-24T11:19:04.442Z,14.31
2023-04-24T11:21:44.503Z,13.93
2023-04-24T11:24:26.666Z,13.34
2023-04-24T11:26:56.339Z,12.35
2023-04-24T11:29:24.106Z,12.34
2023-04-24T11:31:52.694Z,12.03
2023-04-24T11:34:19.759Z,11.74
2023-04-24T11:36:49.888Z,11.87
2023-04-24T11:39:16.614Z,11.63
2023-04-24T11:41:43.363Z,11.75
2023-04-24T11:44:11.286Z,11.61
2023-04-24T11:46:39.093Z,11.38
2023-04-24T11:49:06.732Z,11.33
2023-04-24T11:51:40.028Z,11.62
2023-04-24T11:54:15.034Z,11.49
2023-04-24T11:56:47.447Z,11.57
2023-04-24T11:59:14.460Z,11.39
2023-04-24T12:01:46.412Z,11.34
2023-04-24T12:04:14.435Z,11.43
2023-04-24T12:06:41.382Z,11.24
2023-04-24T12:09:17.837Z,11.18
2023-04-24T12:11:55.122Z,11.28
2023-04-24T12:14:21.936Z,11.22
2023-04-24T12:16:49.973Z,11.24
2023-04-24T12:19:23.704Z,11.39
2023-04-24T12:22:06.085Z,11.10
2023-04-24T12:24:33.060Z,11.08
2023-04-24T12:27:00.130Z,10.95
2023-04-24T12:29:27.026Z,11.08
2023-04-24T12:31:53.953Z,10.84
2023-04-24T12:34:21.834Z,10.62
2023-04-24T12:36:49.716Z,10.55
2023-04-24T12:39:20.797Z,10.41
2023-04-24T12:41:58.340Z,10.31
2023-04-24T12:44:32.883Z,10.00
2023-04-24T12:46:59.678Z,10.09
2023-04-24T12:49:26.926Z,10.24
2023-04-24T12:51:54.371Z,10.24
2023-04-24T12:54:21.133Z,10.35
2023-04-24T12:56:47.842Z,10.20
2023-04-24T12:59:14.777Z,10.12
2023-04-24T13:01:42.729Z,10.09
2023-04-24T13:04:09.650Z,9.87
2023-04-24T13:06:36.504Z,9.93
2023-04-24T13:09:03.285Z,9.83
2023-04-24T13:11:30.051Z,9.77
2023-04-24T13:13:56.677Z,9.65
2023-04-24T13:16:24.264Z,9.69
2023-04-24T13:18:51.251Z,9.51
2023-04-24T13:21:18.672Z,9.53
2023-04-24T13:23:45.559Z,9.66
2023-04-24T13:26:12.365Z,9.72
2023-04-24T13:28:39.398Z,9.59
2023-04-24T13:31:07.352Z,9.63
2023-04-24T13:33:34.087Z,9.67
2023-04-24T13:36:01.051Z,9.66
2023-04-24T13:38:27.851Z,9.77
2023-04-24T13:40:54.675Z,9.58
2023-04-24T13:43:21.428Z,9.59
2023-04-24T13:45:48.251Z,9.53
2023-04-24T13:48:16.502Z,9.38
2023-04-24T13:50:44.192Z,9.43
2023-04-24T13:53:11.338Z,9.30
2023-04-24T13:55:38.314Z,9.42
2023-04-24T13:58:04.964Z,9.52
2023-04-24T14:00:32.480Z,9.52
2023-04-24T14:02:59.352Z,9.84
2023-04-24T14:05:26.482Z,10.02
2023-04-24T14:07:53.408Z,10.06
2023-04-24T14:10:20.437Z,10.39
2023-04-24T14:12:47.297Z,10.51
2023-04-24T14:15:14.627Z,10.45
2023-04-24T14:17:41.591Z,10.42
2023-04-24T14:20:08.727Z,10.50
2023-04-24T14:22:35.673Z,10.36
2023-04-24T14:25:02.317Z,10.32
2023-04-24T14:27:29.112Z,10.13
2023-04-24T14:29:55.920Z,9.98
2023-04-24T14:32:22.692Z,9.87
2023-04-24T14:34:49.516Z,9.92
2023-04-24T14:37:16.527Z,9.88
2023-04-24T14:39:44.510Z,10.10
2023-04-24T14:42:14.821Z,10.17
2023-04-24T14:44:41.628Z,10.12
2023-04-24T14:47:08.363Z,10.11
2023-04-24T14:49:35.397Z,10.24
2023-04-24T14:52:03.830Z,10.18
2023-04-24T14:54:31.708Z,10.14
2023-04-24T14:56:58.658Z,10.26
2023-04-24T14:59:25.470Z,10.04
2023-04-24T15:02:04.997Z,10.04
2023-04-24T15:04:40.692Z,9.79
2023-04-24T15:07:07.483Z,9.85
2023-04-24T15:09:34.561Z,9.96
2023-04-24T15:12:02.816Z,10.24
2023-04-24T15:14:30.010Z,10.19
2023-04-24T15:16:56.760Z,10.09
2023-04-24T15:19:23.592Z,9.99
2023-04-24T15:21:50.416Z,9.98
2023-04-24T15:24:17.137Z,10.05
2023-04-24T15:26:43.900Z,10.00
2023-04-24T15:29:10.612Z,10.00
2023-04-24T15:31:40.689Z,10.24
2023-04-24T15:34:07.582Z,10.26
2023-04-24T15:36:34.324Z,10.14
2023-04-24T15:39:04.793Z,10.14
2023-04-24T15:41:32.924Z,10.00
2023-04-24T15:43:59.564Z,-145.07
2023-04-24T15:46:26.488Z,9.86
2023-04-24T15:48:54.126Z,9.99
2023-04-24T15:51:20.925Z,9.99
2023-04-24T15:53:47.932Z,9.63
2023-04-24T15:56:14.825Z,9.53
2023-04-24T15:58:41.483Z,9.53
2023-04-24T16:01:08.231Z,9.62
2023-04-24T16:03:35.088Z,9.71
2023-04-24T16:06:01.857Z,9.84
2023-04-24T16:08:28.538Z,9.99
2023-04-24T16:10:55.277Z,9.82
2023-04-24T16:13:22.056Z,9.80
2023-04-24T16:15:49.015Z,9.87
2023-04-24T16:18:17.577Z,10.08
2023-04-24T16:20:44.442Z,10.17
2023-04-24T16:23:11.242Z,10.17
2023-04-24T16:25:38.187Z,10.10
2023-04-24T16:28:04.842Z,10.19
2023-04-24T16:30:32.479Z,9.94
2023-04-24T16:32:59.515Z,9.90
2023-04-24T16:35:26.413Z,9.86
2023-04-24T16:37:53.209Z,9.88
2023-04-24T16:40:20.879Z,9.68
2023-04-24T16:42:48.765Z,9.68
2023-04-24T16:45:15.650Z,9.63
2023-04-24T16:47:42.357Z,9.68
2023-04-24T16:50:09.875Z,9.66
2023-04-24T16:52:36.641Z,9.58
2023-04-24T16:55:03.862Z,-145.07
2023-04-24T16:57:30.622Z,9.50
2023-04-24T16:59:57.437Z,9.50
2023-04-24T17:02:27.625Z,-145.07
2023-04-24T17:04:55.582Z,-145.07
2023-04-24T17:07:22.630Z,-145.07
2023-04-24T17:09:49.407Z,-145.07
2023-04-24T17:12:16.217Z,-145.07
2023-04-24T17:14:42.907Z,-145.07
2023-04-24T17:17:10.316Z,-145.07
2023-04-24T17:19:37.085Z,-145.07
2023-04-24T17:22:05.946Z,-145.07
2023-04-24T17:24:34.265Z,-145.07
2023-04-24T17:27:08.144Z,-145.07
2023-04-24T17:29:42.047Z,-145.07
2023-04-24T17:32:09.089Z,-145.07
2023-04-24T17:34:36.035Z,-145.07
2023-04-24T17:37:04.292Z,-145.07
2023-04-24T17:39:31.398Z,-145.07
2023-04-24T17:41:58.325Z,-145.07
2023-04-24T17:44:25.058Z,-145.07
2023-04-24T17:46:51.798Z,-145.07
2023-04-24T17:49:18.537Z,-145.07
2023-04-24T17:51:45.232Z,-145.07
2023-04-24T17:54:11.859Z,-145.07
2023-04-24T17:56:38.578Z,-145.07
2023-04-24T17:59:05.332Z,-145.07
2023-04-24T18:01:32.208Z,-145.07
2023-04-24T18:03:59.014Z,-145.07
2023-04-24T18:06:26.751Z,-145.07
2023-04-24T18:08:53.391Z,-145.07
2023-04-24T18:11:20.529Z,-145.07
2023-04-24T18:13:48.759Z,-145.07
2023-04-24T18:16:15.847Z,-145.07
2023-04-24T18:18:44.375Z,-145.07
2023-04-24T18:21:11.224Z,-145.07
2023-04-24T18:23:38.101Z,-145.07
2023-04-24T18:26:04.765Z,-145.07
2023-04-24T18:28:35.069Z,-145.07
2023-04-24T18:31:02.558Z,-145.07
2023-04-24T18:33:29.472Z,-145.07
2023-04-24T18:35:58.348Z,-145.07
2023-04-24T18:38:26.153Z,-145.07
2023-04-24T18:40:52.850Z,-145.07
2023-04-24T18:43:20.058Z,-145.07
2023-04-24T18:45:47.625Z,-145.07
2023-04-24T18:48:14.283Z,-145.07
2023-04-24T18:50:41.119Z,-145.07
2023-04-24T18:53:09.875Z,-145.07
2023-04-24T18:55:37.287Z,-145.07
2023-04-24T18:58:04.252Z,-145.07
2023-04-24T19:00:31.462Z,-145.07
2023-04-24T19:02:58.481Z,-145.07
2023-04-24T19:05:25.756Z,-145.07
2023-04-24T19:07:53.088Z,-145.07
2023-04-24T19:10:20.523Z,-145.07
2023-04-24T19:12:48.199Z,-145.07
2023-04-24T19:15:15.136Z,-145.07
2023-04-24T19:17:41.961Z,-145.07
2023-04-24T19:20:09.069Z,-145.07
2023-04-24T19:22:36.842Z,-145.07
2023-04-24T19:25:05.136Z,-145.07
2023-04-24T19:27:32.263Z,-145.07
2023-04-24T19:29:58.998Z,-145.07
2023-04-24T19:32:25.738Z,-145.07
2023-04-24T19:34:52.545Z,-145.07
2023-04-24T19:37:19.302Z,-145.07
2023-04-24T19:39:45.999Z,-145.07
2023-04-24T19:42:12.783Z,-145.07
2023-04-24T19:44:40.734Z,-145.07
2023-04-24T19:47:07.519Z,-145.07
2023-04-24T19:49:34.300Z,-145.07
2023-04-24T19:52:01.272Z,-145.07
2023-04-24T19:54:28.405Z,-145.07
2023-04-24T19:56:55.969Z,-145.07
2023-04-24T19:59:23.575Z,-145.07
2023-04-24T20:01:51.753Z,-145.07
2023-04-24T20:04:23.270Z,-145.07
2023-04-24T20:06:50.303Z,-145.07
2023-04-24T20:09:17.047Z,-145.07
2023-04-24T20:11:47.463Z,-145.07
2023-04-24T20:14:14.933Z,-145.07
2023-04-24T20:16:41.825Z,-145.07
2023-04-24T20:19:11.491Z,-145.07
2023-04-24T20:21:40.930Z,-145.07
2023-04-24T20:24:08.951Z,-145.07
2023-04-24T20:26:36.388Z,-145.07
2023-04-24T20:29:08.930Z,-145.07
2023-04-24T20:32:15.700Z,-145.07
2023-04-24T20:34:47.939Z,-145.07
2023-04-24T20:37:14.596Z,-145.07
2023-04-24T20:39:41.488Z,-145.07
2023-04-24T20:42:10.981Z,-145.07
2023-04-24T20:44:38.575Z,-145.07
2023-04-24T20:47:06.413Z,-145.07
2023-04-24T20:49:33.189Z,-145.07
2023-04-24T20:51:59.951Z,-145.07
2023-04-24T20:54:26.628Z,-145.07
2023-04-24T20:56:53.424Z,-145.07
2023-04-24T20:59:20.130Z,-145.07
2023-04-24T21:01:48.728Z,-145.07
2023-04-24T21:04:15.951Z,-145.07
2023-04-24T21:06:43.757Z,-145.07
2023-04-24T21:09:10.514Z,-145.07
2023-04-24T21:11:37.348Z,-145.07
2023-04-24T21:14:04.100Z,-145.07
2023-04-24T21:16:30.926Z,-145.07
2023-04-24T21:18:58.134Z,-145.07
2023-04-24T21:21:25.456Z,-145.07
2023-04-24T21:23:52.361Z,-145.07
2023-04-24T21:26:19.336Z,-145.07
2023-04-24T21:28:46.075Z,-145.07
2023-04-24T21:31:12.959Z,-145.07
2023-04-24T21:33:39.801Z,-145.07
2023-04-24T21:36:06.851Z,-145.07
2023-04-24T21:38:34.034Z,-145.07
2023-04-24T21:41:00.934Z,-145.07
2023-04-24T21:43:33.880Z,-145.07
2023-04-24T21:46:10.916Z,-145.07
2023-04-24T21:48:37.690Z,-145.07
2023-04-24T21:51:04.406Z,-145.07
2023-04-24T21:53:31.359Z,-145.07
2023-04-24T21:55:58.183Z,-145.07
2023-04-24T21:58:25.058Z,-145.07
2023-04-24T22:00:51.815Z,-145.07
2023-04-24T22:03:18.651Z,-145.07
2023-04-24T22:05:45.408Z,-145.07
2023-04-24T22:08:12.146Z,-145.07
2023-04-24T22:10:38.936Z,-145.07
2023-04-24T22:13:05.628Z,-145.07
2023-04-24T22:15:32.386Z,-145.07
2023-04-24T22:17:59.146Z,-145.07
2023-04-24T22:20:26.051Z,-145.07
2023-04-24T22:22:53.194Z,-145.07
2023-04-24T22:25:20.033Z,-145.07
2023-04-24T22:27:46.766Z,-145.07
2023-04-24T22:30:13.524Z,-145.07
2023-04-24T22:32:40.291Z,-145.07
2023-04-24T22:35:08.405Z,-145.07
2023-04-24T22:37:35.121Z,-145.07
2023-04-24T22:40:02.074Z,-145.07
2023-04-24T22:42:31.912Z,-145.07
2023-04-24T22:44:58.679Z,-145.07
2023-04-24T22:47:25.638Z,-145.07
2023-04-24T22:49:53.818Z,-145.07
2023-04-24T22:52:21.085Z,-145.07
2023-04-24T22:54:47.857Z,-145.07
2023-04-24T22:57:15.082Z,-145.07
2023-04-24T22:59:41.833Z,-145.07
2023-04-24T23:02:08.596Z,-145.07
2023-04-24T23:04:35.659Z,-145.07
2023-04-24T23:07:02.318Z,-145.07
2023-04-24T23:09:29.025Z,-145.07
2023-04-24T23:11:55.725Z,-145.07
2023-04-24T23:14:24.650Z,-145.07
2023-04-24T23:16:51.929Z,-145.07
2023-04-24T23:19:18.679Z,-145.07
2023-04-24T23:21:45.406Z,-145.07
2023-04-24T23:24:12.104Z,-145.07
2023-04-24T23:26:38.955Z,-145.07
2023-04-24T23:29:05.746Z,-145.07
2023-04-24T23:31:32.430Z,-145.07
2023-04-24T23:34:00.266Z,-145.07
2023-04-24T23:36:27.239Z,-145.07
2023-04-24T23:38:54.013Z,-145.07
2023-04-24T23:41:20.735Z,-145.07
2023-04-24T23:43:47.700Z,-145.07
2023-04-24T23:46:14.701Z,-145.07
2023-04-24T23:48:41.398Z,-145.07
2023-04-24T23:51:08.533Z,-145.07
2023-04-24T23:53:35.290Z,-145.07
2023-04-24T23:56:02.190Z,-145.07
2023-04-24T23:58:29.747Z,-145.07
